Time;durP1;ratioP1;P1;durP2;ratioP2;P2;SDS_P1;SDS_P2;PMS_P1;PMS_P2;Temp;Humidity;BMP_temperature;BMP_pressure;BME280_temperature;BME280_humidity;BME280_pressure;Samples;Min_cycle;Max_cycle;Signal;HPM_P1;HPM_P2
2022/05/07 00:01:14;;;;;;;7.53;2.22;;;;;;;11.86;33.42;100369.59;4991818;28;20572;-44
2022/05/07 00:03:40;;;;;;;5.63;2.08;;;;;;;11.91;33.46;100382.47;4990432;28;20469;-46
2022/05/07 00:06:06;;;;;;;8.18;1.90;;;;;;;11.90;33.44;100399.84;4981839;28;20077;-44
2022/05/07 00:08:31;;;;;;;4.00;2.03;;;;;;;11.86;33.58;100380.84;4984274;28;20517;-43
2022/05/07 00:10:57;;;;;;;3.17;1.83;;;;;;;11.89;33.38;100377.28;5003878;28;20046;-45
2022/05/07 00:13:23;;;;;;;3.15;1.70;;;;;;;11.91;33.67;100388.53;4972059;28;20034;-44
2022/05/07 00:18:33;;;;;;;10.52;2.47;;;;;;;11.89;33.51;100374.69;4990136;28;20116;-43
2022/05/07 00:20:59;;;;;;;2.17;1.55;;;;;;;11.91;33.59;100379.88;4989469;28;20050;-44
2022/05/07 00:23:25;;;;;;;2.58;1.40;;;;;;;11.88;33.55;100380.78;4991647;28;20038;-44
2022/05/07 00:25:51;;;;;;;4.72;1.90;;;;;;;11.77;33.66;100359.44;4985630;28;20055;-44
2022/05/07 00:28:17;;;;;;;5.05;2.20;;;;;;;11.93;33.33;100385.91;4986050;28;20048;-41
2022/05/07 00:30:43;;;;;;;7.32;1.70;;;;;;;11.80;33.96;100375.81;4991767;28;20046;-42
2022/05/07 00:33:09;;;;;;;6.80;1.77;;;;;;;11.87;33.87;100376.50;4990469;28;20085;-43
2022/05/07 00:35:35;;;;;;;3.15;1.75;;;;;;;11.74;33.64;100354.28;4990694;28;20046;-44
2022/05/07 00:38:01;;;;;;;2.75;1.63;;;;;;;11.80;33.63;100362.78;4970191;28;20529;-46
2022/05/07 00:40:27;;;;;;;3.83;1.50;;;;;;;11.87;33.99;100379.97;4976153;28;20038;-45
2022/05/07 00:42:53;;;;;;;4.25;1.67;;;;;;;11.86;34.34;100370.44;4991446;28;20057;-47
2022/05/07 00:45:18;;;;;;;5.43;2.28;;;;;;;11.90;33.85;100381.63;4990628;28;20038;-43
2022/05/07 00:47:44;;;;;;;7.47;1.70;;;;;;;11.73;33.90;100350.81;4989388;28;20453;-42
2022/05/07 00:52:54;;;;;;;3.67;2.05;;;;;;;11.92;33.99;100389.41;4972065;28;20125;-44
2022/05/07 00:55:20;;;;;;;2.45;1.88;;;;;;;11.91;33.63;100387.69;4983366;28;20577;-44
2022/05/07 00:57:46;;;;;;;3.38;1.92;;;;;;;11.93;34.02;100391.97;4989575;28;20510;-42
2022/05/07 01:00:12;;;;;;;3.50;1.92;;;;;;;11.94;34.27;100387.59;4990115;28;20077;-43
2022/05/07 01:02:39;;;;;;;5.53;1.98;;;;;;;11.78;33.71;100366.31;4988833;28;20165;-44
2022/05/07 01:05:06;;;;;;;3.88;2.10;;;;;;;11.92;33.66;100386.78;4969878;28;20495;-44
2022/05/07 01:07:34;;;;;;;4.47;2.13;;;;;;;11.91;34.45;100383.31;4957115;28;20494;-44
2022/05/07 01:10:02;;;;;;;5.63;2.25;;;;;;;11.92;33.64;100382.44;4989744;28;20053;-43
2022/05/07 01:12:30;;;;;;;3.72;1.90;;;;;;;11.94;33.90;100387.59;4989944;28;20054;-43
2022/05/07 01:14:57;;;;;;;3.20;1.90;;;;;;;11.95;34.27;100376.25;4989167;28;20038;-44
2022/05/07 01:17:23;;;;;;;4.78;1.90;;;;;;;11.95;34.56;100371.91;4973764;28;20053;-43
2022/05/07 01:19:53;;;;;;;3.72;1.90;;;;;;;11.83;34.62;100361.84;4975078;28;20128;-45
2022/05/07 01:22:21;;;;;;;7.03;1.88;;;;;;;11.92;34.56;100378.97;4973425;28;20042;-43
2022/05/07 01:24:47;;;;;;;4.00;1.70;;;;;;;11.89;34.35;100375.53;4988635;28;20042;-43
2022/05/07 01:27:13;;;;;;;4.78;2.17;;;;;;;11.89;34.39;100374.69;4975646;28;20136;-42
2022/05/07 01:29:39;;;;;;;4.35;2.00;;;;;;;11.87;34.49;100373.91;4970180;28;20042;-42
2022/05/07 01:32:05;;;;;;;2.92;1.60;;;;;;;11.78;34.45;100350.69;4957811;28;20053;-42
2022/05/07 01:34:31;;;;;;;2.63;1.70;;;;;;;11.85;34.13;100371.31;4985161;28;20077;-45
2022/05/07 01:36:57;;;;;;;5.40;1.80;;;;;;;11.83;34.37;100372.25;4994085;28;20077;-45
2022/05/07 01:39:23;;;;;;;4.63;1.90;;;;;;;11.85;34.55;100371.31;4972868;28;20053;-45
2022/05/07 01:41:49;;;;;;;5.13;1.95;;;;;;;11.89;34.72;100379.91;4974049;28;20070;-43
2022/05/07 01:44:15;;;;;;;5.78;2.22;;;;;;;11.86;34.78;100369.59;4979685;28;20046;-44
2022/05/07 01:49:31;;;;;;;7.85;2.40;;;;;;;11.83;34.49;100380.94;4991977;28;20050;-44
2022/05/07 01:51:58;;;;;;;3.28;2.05;;;;;;;11.84;34.39;100374.81;4992082;28;20092;-44
2022/05/07 01:54:23;;;;;;;5.72;1.80;;;;;;;11.85;34.38;100373.94;4993092;28;20042;-44
2022/05/07 01:56:49;;;;;;;4.60;1.95;;;;;;;11.84;34.60;100377.44;4973349;28;20069;-43
2022/05/07 01:59:15;;;;;;;4.43;1.80;;;;;;;11.86;34.85;100380.84;4982516;28;20046;-44
2022/05/07 02:01:42;;;;;;;4.18;2.20;;;;;;;11.87;34.32;100374.75;4978821;28;20129;-45
2022/05/07 02:04:08;;;;;;;5.13;1.92;;;;;;;11.91;34.24;100377.25;4989977;28;20066;-42
2022/05/07 02:06:35;;;;;;;4.45;1.75;;;;;;;11.94;34.80;100371.94;4991403;28;20054;-42
2022/05/07 02:09:00;;;;;;;3.92;2.10;;;;;;;12.02;34.63;100377.81;4992012;28;20450;-44
2022/05/07 02:11:30;;;;;;;3.50;2.10;;;;;;;12.03;34.44;100372.56;4976522;28;20047;-43
2022/05/07 02:13:57;;;;;;;5.20;2.22;;;;;;;12.01;34.87;100376.09;4992707;28;20046;-44
2022/05/07 02:16:23;;;;;;;3.55;1.60;;;;;;;12.00;34.63;100380.44;4972291;28;20048;-43
2022/05/07 02:18:48;;;;;;;5.20;2.13;;;;;;;11.97;34.89;100385.75;4973701;28;20061;-44
2022/05/07 02:21:14;;;;;;;4.15;1.98;;;;;;;11.98;34.38;100379.66;4973317;28;20054;-43
2022/05/07 02:23:40;;;;;;;6.63;2.38;;;;;;;12.02;34.86;100385.63;4976298;28;20097;-44
2022/05/07 02:26:07;;;;;;;5.07;2.28;;;;;;;12.03;34.88;100387.34;4991539;28;20046;-46
2022/05/07 02:28:33;;;;;;;4.15;1.98;;;;;;;12.05;34.38;100380.31;4991623;28;20165;-44
2022/05/07 02:31:00;;;;;;;5.43;2.40;;;;;;;12.07;34.81;100386.34;4992088;28;20050;-46
2022/05/07 02:33:26;;;;;;;8.45;2.15;;;;;;;12.06;35.25;100389.84;4992382;28;20046;-44
2022/05/07 02:35:52;;;;;;;4.53;2.03;;;;;;;12.05;34.66;100386.38;4992580;28;20490;-43
2022/05/07 02:38:18;;;;;;;8.40;2.13;;;;;;;12.11;34.41;100387.97;4991381;28;20042;-43
2022/05/07 02:43:34;;;;;;;7.22;2.25;;;;;;;12.13;34.57;100394.00;4993475;28;20049;-46
2022/05/07 02:46:03;;;;;;;5.22;2.50;;;;;;;12.13;34.54;100391.38;4990244;28;20125;-45
2022/05/07 02:48:28;;;;;;;6.72;2.20;;;;;;;12.11;34.67;100391.41;4991743;28;20133;-42
2022/05/07 02:50:54;;;;;;;5.93;2.25;;;;;;;12.11;34.83;100393.16;4981888;28;20101;-43
2022/05/07 02:53:20;;;;;;;4.05;2.10;;;;;;;12.12;34.46;100395.75;4972706;28;20034;-43
2022/05/07 02:55:48;;;;;;;4.80;2.35;;;;;;;12.07;34.97;100386.34;4982080;28;20042;-43
2022/05/07 02:58:14;;;;;;;5.95;2.05;;;;;;;12.29;34.81;100403.06;4993077;28;20042;-44
2022/05/07 03:00:42;;;;;;;5.28;2.10;;;;;;;12.29;34.62;100406.53;4988592;28;20078;-46
2022/05/07 03:03:07;;;;;;;8.10;2.10;;;;;;;12.27;34.55;100403.09;4978465;28;20494;-41
2022/05/07 03:05:33;;;;;;;8.02;2.10;;;;;;;12.21;34.54;100382.44;4976460;28;20050;-42
2022/05/07 03:08:00;;;;;;;5.63;2.17;;;;;;;12.36;34.25;100407.19;4992904;28;20505;-43
2022/05/07 03:10:27;;;;;;;3.95;2.00;;;;;;;12.35;34.47;100402.88;4972996;28;20038;-42
2022/05/07 03:12:52;;;;;;;8.60;2.00;;;;;;;12.44;34.28;100415.66;4972758;28;20041;-45
2022/05/07 03:15:19;;;;;;;5.55;2.35;;;;;;;12.31;34.19;100394.28;4976025;28;20133;-46
2022/05/07 03:17:45;;;;;;;7.25;2.25;;;;;;;12.45;34.21;100406.06;4992557;28;20050;-43
2022/05/07 03:20:13;;;;;;;5.40;2.20;;;;;;;12.44;34.30;100417.41;4975026;28;20046;-44
2022/05/07 03:22:42;;;;;;;4.10;2.35;;;;;;;12.43;34.26;100403.50;4988805;28;20050;-44
2022/05/07 03:25:08;;;;;;;6.53;2.20;;;;;;;12.50;34.29;100407.63;4972004;28;20418;-43
2022/05/07 03:27:35;;;;;;;5.80;2.28;;;;;;;12.50;34.13;100410.25;4971993;28;20046;-42
2022/05/07 03:30:09;;;;;;;4.60;2.30;;;;;;;12.54;34.44;100416.22;4978486;28;20038;-43
2022/05/07 03:32:47;;;;;;;3.58;2.15;;;;;;;12.49;33.84;100410.28;4957167;28;20470;-42
2022/05/07 03:35:13;;;;;;;7.88;2.35;;;;;;;12.48;34.19;100414.66;4971788;28;20043;-43
2022/05/07 03:37:39;;;;;;;7.60;2.47;;;;;;;12.36;34.56;100399.34;4972140;28;20074;-45
2022/05/07 03:40:06;;;;;;;5.63;2.15;;;;;;;12.38;34.58;100400.19;4962599;28;20521;-44
2022/05/07 03:42:33;;;;;;;8.88;2.55;;;;;;;12.41;34.15;100405.28;4991438;28;20045;-44
2022/05/07 03:45:00;;;;;;;7.72;2.40;;;;;;;12.46;34.26;100408.59;4991719;28;20038;-44
2022/05/07 03:47:29;;;;;;;;;;;;;;;12.54;33.90;100405.78;4975806;28;20037;-44
2022/05/07 03:49:55;;;;;;;9.63;2.40;;;;;;;12.55;34.17;100410.09;4985430;28;19968;-45
2022/05/07 03:55:09;;;;;;;6.00;2.38;;;;;;;12.60;33.77;100416.03;4972671;28;20047;-44
2022/05/07 03:57:37;;;;;;;5.50;2.20;;;;;;;12.63;34.34;100414.16;4974626;28;20046;-43
2022/05/07 04:00:03;;;;;;;7.00;2.38;;;;;;;12.66;34.19;100406.28;4990019;28;20060;-44
2022/05/07 04:02:40;;;;;;;3.78;1.90;;;;;;;12.61;33.76;100400.31;4989201;28;20473;-44
2022/05/07 04:05:11;;;;;;;3.85;2.50;;;;;;;12.61;34.04;100407.31;4974387;28;20046;-43
2022/05/07 04:07:37;;;;;;;3.88;2.53;;;;;;;12.63;34.01;100410.72;4971168;28;20122;-44
2022/05/07 04:10:08;;;;;;;4.53;2.17;;;;;;;12.60;33.87;100411.66;4975064;28;20046;-44
2022/05/07 04:12:46;;;;;;;5.32;2.38;;;;;;;12.48;34.13;100382.50;4990422;28;20046;-46
2022/05/07 04:15:11;;;;;;;9.10;2.28;;;;;;;12.58;34.28;100404.78;4971543;28;20141;-44
2022/05/07 04:17:37;;;;;;;4.38;2.13;;;;;;;12.54;33.91;100398.81;4968046;28;20133;-46
2022/05/07 04:20:05;;;;;;;6.55;2.38;;;;;;;12.61;34.29;100412.53;4990348;28;20046;-43
2022/05/07 04:22:34;;;;;;;5.60;2.58;;;;;;;12.67;33.96;100407.09;4989506;28;20046;-43
2022/05/07 04:25:00;;;;;;;7.75;2.60;;;;;;;12.67;34.07;100405.34;4990367;28;20061;-43
2022/05/07 04:27:27;;;;;;;6.70;2.95;;;;;;;12.67;34.01;100414.91;4990624;28;20046;-45
2022/05/07 04:29:57;;;;;;;5.90;2.33;;;;;;;12.64;34.28;100407.19;4970636;28;20137;-42
2022/05/07 04:32:24;;;;;;;4.35;2.47;;;;;;;12.59;34.39;100409.97;4970844;28;20126;-44
2022/05/07 04:34:57;;;;;;;4.35;2.60;;;;;;;12.52;34.00;100395.38;4970970;28;20070;-42
2022/05/07 04:37:25;;;;;;;6.30;2.47;;;;;;;12.61;34.12;100395.09;4982138;28;20049;-44
2022/05/07 04:39:51;;;;;;;5.95;2.30;;;;;;;12.77;34.05;100408.50;4989959;28;20568;-43
2022/05/07 04:42:18;;;;;;;6.65;2.42;;;;;;;12.73;33.69;100406.91;4958036;28;20038;-43
2022/05/07 04:45:03;;;;;;;5.32;2.83;;;;;;;12.77;33.89;100398.06;4989934;28;20047;-43
2022/05/07 04:47:52;;;;;;;6.55;2.47;;;;;;;12.84;33.81;100401.34;4989279;28;20042;-43
2022/05/07 04:50:24;;;;;;;6.63;2.55;;;;;;;12.90;33.70;100402.00;4989361;28;20053;-45
2022/05/07 04:52:57;;;;;;;6.18;2.40;;;;;;;12.93;33.90;100408.88;4970141;28;20116;-46
2022/05/07 04:55:41;;;;;;;4.65;2.38;;;;;;;12.92;33.58;100401.97;4959899;28;20062;-47
2022/05/07 04:58:07;;;;;;;3.92;2.10;;;;;;;12.91;33.61;100389.81;4972741;28;20539;-46
2022/05/07 05:00:35;;;;;;;7.25;2.30;;;;;;;13.00;33.63;100405.16;4992174;28;20424;-45
2022/05/07 05:03:15;;;;;;;4.85;1.77;;;;;;;12.90;33.44;100369.84;4992606;28;20088;-44
2022/05/07 05:05:50;;;;;;;6.40;2.25;;;;;;;13.10;33.29;100390.91;4993818;28;20057;-46
2022/05/07 05:08:31;;;;;;;4.60;2.40;;;;;;;13.20;33.32;100392.34;4987061;28;20130;-44
2022/05/07 05:10:58;;;;;;;7.18;2.50;;;;;;;13.29;33.23;100392.06;4992135;28;20065;-42
2022/05/07 05:13:28;;;;;;;4.35;2.20;;;;;;;13.40;33.16;100389.03;4993246;28;20049;-43
2022/05/07 05:15:54;;;;;;;10.77;2.70;;;;;;;13.50;33.12;100391.28;4993752;28;20050;-46
2022/05/07 05:18:30;;;;;;;6.55;2.17;;;;;;;13.65;32.82;100396.91;4992876;28;20093;-44
2022/05/07 05:20:57;;;;;;;3.13;2.20;;;;;;;13.70;32.62;100397.59;4993507;28;20466;-43
2022/05/07 05:23:26;;;;;;;5.55;2.53;;;;;;;13.75;32.60;100393.91;4992850;28;20046;-44
2022/05/07 05:25:52;;;;;;;4.47;2.63;;;;;;;13.79;32.42;100387.66;4993661;28;20054;-43
2022/05/07 05:28:28;;;;;;;9.45;4.25;;;;;;;13.73;32.13;100371.31;4988491;28;20042;-45
2022/05/07 05:30:59;;;;;;;4.35;2.80;;;;;;;13.96;32.28;100400.09;4993292;28;20042;-44
2022/05/07 05:33:26;;;;;;;7.80;2.70;;;;;;;14.07;32.13;100397.94;4993324;28;20046;-43
2022/05/07 05:36:08;;;;;;;5.80;2.63;;;;;;;14.16;32.02;100392.38;4993113;28;20038;-42
2022/05/07 05:38:39;;;;;;;;;;;;;;;14.35;32.01;100395.97;4992603;28;20042;-43
2022/05/07 05:41:06;;;;;;;8.37;2.40;;;;;;;14.46;31.25;100392.97;4993234;28;20317;-43
2022/05/07 05:43:37;;;;;;;5.65;2.55;;;;;;;14.47;31.43;100388.59;4993003;28;20046;-43
2022/05/07 05:46:04;;;;;;;4.63;2.57;;;;;;;14.56;31.48;100389.09;4977697;28;20101;-41
2022/05/07 05:48:30;;;;;;;5.22;2.58;;;;;;;14.66;31.10;100390.44;4989514;28;20399;-44
2022/05/07 05:50:57;;;;;;;4.53;2.53;;;;;;;14.73;31.10;100385.81;4992565;28;20410;-44
2022/05/07 05:53:25;;;;;;;9.32;2.75;;;;;;;14.93;31.04;100391.09;4990790;28;20096;-42
2022/05/07 05:55:52;;;;;;;5.50;2.40;;;;;;;15.05;30.81;100385.34;4992374;28;20038;-44
2022/05/07 05:58:33;;;;;;;4.97;2.58;;;;;;;15.16;30.74;100391.00;4973819;28;20518;-44
2022/05/07 06:01:00;;;;;;;3.80;2.42;;;;;;;15.23;30.43;100388.97;4976714;28;20073;-42
2022/05/07 06:03:26;;;;;;;5.57;2.70;;;;;;;15.29;30.27;100375.59;4974852;28;20517;-42
2022/05/07 06:05:52;;;;;;;8.35;2.83;;;;;;;15.51;30.36;100386.91;4992715;28;20048;-42
2022/05/07 06:08:18;;;;;;;6.72;2.88;;;;;;;15.66;29.89;100382.75;4954618;28;20051;-42
2022/05/07 06:10:45;;;;;;;9.00;2.90;;;;;;;15.84;29.83;100392.44;4989657;28;20193;-44
2022/05/07 06:13:12;;;;;;;5.65;2.70;;;;;;;15.87;29.74;100387.06;4991465;28;20034;-44
2022/05/07 06:15:45;;;;;;;9.88;3.03;;;;;;;16.00;29.37;100397.84;4992087;28;20041;-43
2022/05/07 06:18:11;;;;;;;8.48;2.35;;;;;;;16.10;29.19;100393.91;4975543;28;20050;-43
2022/05/07 06:20:38;;;;;;;4.80;2.63;;;;;;;16.27;29.39;100387.88;4979795;28;20130;-42
2022/05/07 06:23:04;;;;;;;9.93;2.70;;;;;;;16.52;29.09;100386.66;4991876;28;20497;-43
2022/05/07 06:28:25;;;;;;;7.43;2.63;;;;;;;18.39;26.39;100390.16;4978704;28;20042;-43
2022/05/07 06:30:52;;;;;;;8.30;2.80;;;;;;;19.44;24.69;100389.41;4992340;28;20042;-44
2022/05/07 06:33:20;;;;;;;6.10;2.87;;;;;;;20.31;23.99;100395.50;4992229;28;20634;-44
2022/05/07 06:35:55;;;;;;;6.05;2.40;;;;;;;21.49;22.83;100385.06;4990916;28;20042;-44
2022/05/07 06:38:26;;;;;;;5.00;2.55;;;;;;;22.34;21.55;100394.97;4976090;28;20038;-45
2022/05/07 06:40:52;;;;;;;7.03;2.75;;;;;;;23.07;20.93;100386.97;4958778;28;20050;-44
2022/05/07 06:43:18;;;;;;;4.45;2.70;;;;;;;24.01;19.77;100376.19;4993342;28;20133;-42
2022/05/07 06:46:06;;;;;;;9.48;3.00;;;;;;;24.82;19.26;100381.97;4978118;28;20432;-44
2022/05/07 06:48:38;;;;;;;9.50;2.50;;;;;;;25.26;18.48;100391.63;4975067;28;20461;-45
2022/05/07 06:51:09;;;;;;;6.22;2.50;;;;;;;25.61;17.55;100390.47;4990929;28;20046;-45
2022/05/07 06:53:35;;;;;;;6.10;2.90;;;;;;;25.66;17.48;100393.56;4991167;28;20050;-45
2022/05/07 06:56:01;;;;;;;6.13;3.13;;;;;;;25.98;17.21;100386.31;4993001;28;20132;-44
2022/05/07 06:58:30;;;;;;;5.75;2.75;;;;;;;26.43;16.87;100389.41;4992913;28;20050;-44
2022/05/07 07:00:57;;;;;;;5.07;2.50;;;;;;;26.14;17.07;100384.00;4972294;28;20063;-42
2022/05/07 07:03:23;;;;;;;4.35;2.60;;;;;;;26.47;16.38;100382.00;4946940;28;20098;-43
2022/05/07 07:05:50;;;;;;;4.00;2.70;;;;;;;26.67;16.01;100394.41;4988452;28;20049;-44
2022/05/07 07:08:17;;;;;;;5.32;2.63;;;;;;;26.90;16.20;100390.50;4980632;28;20069;-42
2022/05/07 07:10:42;;;;;;;4.35;2.67;;;;;;;27.18;15.71;100379.97;4992394;28;20034;-43
2022/05/07 07:13:09;;;;;;;4.20;2.53;;;;;;;27.84;15.24;100390.72;4990553;28;20049;-45
2022/05/07 07:15:36;;;;;;;7.55;3.33;;;;;;;28.55;14.79;100389.13;4972987;28;20051;-44
2022/05/07 07:18:04;;;;;;;6.28;3.03;;;;;;;28.46;14.45;100376.66;4972050;28;20035;-43
2022/05/07 07:20:30;;;;;;;9.27;2.97;;;;;;;29.25;13.93;100395.53;4982921;28;20050;-47
2022/05/07 07:22:56;;;;;;;8.77;3.00;;;;;;;28.94;14.10;100387.06;4985565;28;20038;-44
2022/05/07 07:25:22;;;;;;;10.63;3.00;;;;;;;29.43;14.08;100380.28;4990909;28;20046;-45
2022/05/07 07:27:48;;;;;;;8.43;4.53;;;;;;;30.59;13.02;100387.78;4959232;28;20042;-45
2022/05/07 07:30:13;;;;;;;5.68;2.88;;;;;;;31.17;12.91;100382.34;4974891;28;20070;-46
2022/05/07 07:32:39;;;;;;;4.82;2.90;;;;;;;30.62;12.80;100376.69;4990212;28;20480;-45
2022/05/07 07:35:05;;;;;;;5.80;2.85;;;;;;;29.41;13.40;100369.72;4991408;28;20121;-44
2022/05/07 07:37:32;;;;;;;9.27;2.92;;;;;;;29.58;13.55;100376.00;4988592;28;20051;-45
2022/05/07 07:40:00;;;;;;;5.35;2.72;;;;;;;29.29;13.98;100362.91;4980522;28;20062;-45
2022/05/07 07:42:27;;;;;;;6.40;2.90;;;;;;;29.66;13.50;100364.50;4987020;28;20077;-44
2022/05/07 07:48:11;;;;;;;4.57;2.80;;;;;;;29.36;13.51;100350.56;4991028;28;20068;-46
2022/05/07 07:50:35;;;;;;;5.50;2.40;;;;;;;29.90;13.30;100375.41;4990828;28;20065;-47
2022/05/07 07:53:08;;;;;;;6.32;2.60;;;;;;;29.05;13.42;100339.44;4989731;28;20039;-48
2022/05/07 07:55:36;;;;;;;10.23;2.60;;;;;;;29.51;13.44;100350.88;4977480;28;20058;-45
2022/05/07 07:58:06;;;;;;;5.53;2.60;;;;;;;31.02;12.73;100358.00;4989098;28;20038;-45
2022/05/07 08:00:33;;;;;;;5.55;2.65;;;;;;;32.06;12.04;100344.53;4978087;28;20882;-46
2022/05/07 08:03:05;;;;;;;5.57;2.97;;;;;;;32.12;12.02;100351.94;4951875;28;20572;-46
2022/05/07 08:05:35;;;;;;;6.38;2.58;;;;;;;31.39;12.46;100346.72;4984642;28;20064;-45
2022/05/07 08:13:36;;;;;;;8.35;2.80;;;;;;;29.11;13.96;100347.84;4978861;28;20041;-47
2022/05/07 08:16:03;;;;;;;5.22;2.70;;;;;;;30.21;13.38;100340.81;4987590;28;20058;-47
2022/05/07 08:18:29;;;;;;;6.28;2.80;;;;;;;30.97;12.46;100335.28;4954831;28;20514;-48
2022/05/07 08:20:56;;;;;;;5.50;2.33;;;;;;;32.02;11.89;100337.81;4975055;28;20054;-46
2022/05/07 08:23:21;;;;;;;5.45;3.00;;;;;;;30.94;12.20;100354.41;4976263;28;20057;-47
2022/05/07 08:25:48;;;;;;;7.63;2.67;;;;;;;29.86;12.82;100331.94;4984760;28;20391;-46
2022/05/07 08:28:14;;;;;;;4.93;2.38;;;;;;;28.98;13.49;100334.88;4988635;28;20053;-44
2022/05/07 08:30:39;;;;;;;4.88;2.40;;;;;;;28.61;13.75;100319.78;4977491;28;20133;-48
2022/05/07 08:33:05;;;;;;;3.40;2.25;;;;;;;29.64;13.31;100307.53;4974454;28;20038;-45
2022/05/07 08:35:31;;;;;;;5.32;2.50;;;;;;;30.74;12.67;100308.25;4982552;28;20070;-45
2022/05/07 08:37:57;;;;;;;5.55;2.50;;;;;;;31.41;12.19;100309.72;4990132;28;20035;-45
2022/05/07 08:40:24;;;;;;;5.15;2.30;;;;;;;31.85;11.66;100325.44;4991031;28;20133;-47
2022/05/07 08:42:50;;;;;;;4.03;2.80;;;;;;;31.95;11.50;100304.53;4979493;28;20524;-48
2022/05/07 08:45:16;;;;;;;8.32;2.20;;;;;;;31.11;11.62;100311.31;4979140;28;20052;-44
2022/05/07 08:47:43;;;;;;;13.57;2.50;;;;;;;31.80;11.28;100312.50;4990858;28;20046;-45
2022/05/07 08:50:12;;;;;;;6.87;2.80;;;;;;;32.42;10.98;100311.72;4974016;28;20057;-45
2022/05/07 08:52:43;;;;;;;5.50;2.08;;;;;;;30.03;11.69;100298.03;4975508;28;20133;-51
2022/05/07 08:55:18;;;;;;;5.22;2.33;;;;;;;29.86;11.96;100297.09;4989234;28;20046;-50
2022/05/07 08:57:48;;;;;;;10.63;2.80;;;;;;;29.22;12.40;100299.38;4987408;28;20564;-44
2022/05/07 09:00:21;;;;;;;4.78;2.42;;;;;;;30.02;11.94;100287.47;4984401;28;20042;-44
2022/05/07 09:02:50;;;;;;;4.05;2.45;;;;;;;30.14;11.96;100300.41;4959687;28;20505;-43
2022/05/07 09:05:18;;;;;;;3.72;2.30;;;;;;;31.05;11.58;100295.84;4990818;28;20052;-48
2022/05/07 09:07:58;;;;;;;4.55;2.17;;;;;;;30.65;11.63;100283.25;4978362;28;20041;-45
2022/05/07 09:10:26;;;;;;;4.40;2.30;;;;;;;29.79;11.71;100289.84;4971482;28;20070;-44
2022/05/07 09:12:52;;;;;;;7.22;2.20;;;;;;;29.70;11.97;100293.50;4976264;28;20555;-51
2022/05/07 09:15:18;;;;;;;4.55;2.08;;;;;;;29.17;12.38;100294.50;4980412;28;20052;-46
2022/05/07 09:17:47;;;;;;;4.25;2.33;;;;;;;28.55;12.79;100292.78;4976590;28;20121;-46
2022/05/07 09:20:21;;;;;;;3.65;2.28;;;;;;;28.19;13.13;100287.41;4981290;28;20565;-46
2022/05/07 09:22:55;;;;;;;4.80;2.00;;;;;;;29.30;12.43;100284.22;4982149;28;20133;-46
2022/05/07 09:25:23;;;;;;;2.65;2.15;;;;;;;29.33;12.58;100285.75;4987794;28;20434;-50
2022/05/07 09:27:59;;;;;;;5.30;2.13;;;;;;;29.85;12.25;100282.00;4981082;28;20042;-48
2022/05/07 09:30:26;;;;;;;7.80;2.28;;;;;;;29.29;12.47;100300.44;4982618;28;20042;-44
2022/05/07 09:32:53;;;;;;;4.35;1.90;;;;;;;28.06;13.12;100275.34;4980376;28;20046;-45
2022/05/07 09:38:09;;;;;;;5.25;2.22;;;;;;;29.01;12.90;100283.66;4979205;28;20035;-49
2022/05/07 09:40:39;;;;;;;6.70;2.20;;;;;;;28.86;12.82;100272.69;4983924;28;20038;-48
2022/05/07 09:43:08;;;;;;;2.45;1.98;;;;;;;28.69;13.13;100276.19;4981231;28;20042;-46
2022/05/07 09:45:35;;;;;;;9.30;2.28;;;;;;;29.55;12.89;100284.38;4993638;28;20050;-47
2022/05/07 09:48:02;;;;;;;3.17;2.10;;;;;;;29.00;12.95;100271.28;4979881;28;20042;-47
2022/05/07 09:58:39;;;;;;;7.95;2.40;;;;;;;27.91;13.72;100253.63;4987034;28;20394;-46
2022/05/07 10:01:29;;;;;;;7.07;2.35;;;;;;;28.17;13.35;100268.00;4984728;28;20049;-46
2022/05/07 10:04:22;;;;;;;5.18;2.25;;;;;;;27.54;14.19;100276.88;4977101;28;20086;-46
2022/05/07 10:07:12;;;;;;;2.63;2.00;;;;;;;27.36;14.39;100252.75;4987598;28;20066;-44
2022/05/07 10:10:16;;;;;;;5.50;2.58;;;;;;;27.17;14.42;100267.00;4987559;28;20939;-49
2022/05/07 10:12:44;;;;;;;4.65;2.10;;;;;;;26.97;14.65;100246.66;4982099;28;20129;-45
2022/05/07 10:15:16;;;;;;;3.80;2.00;;;;;;;26.29;14.95;100245.84;4981431;28;20046;-45
2022/05/07 10:17:45;;;;;;;3.20;1.85;;;;;;;25.97;15.16;100256.69;4985153;28;20093;-46
2022/05/07 10:20:14;;;;;;;4.78;2.25;;;;;;;26.21;15.05;100237.69;4976939;28;20121;-47
2022/05/07 10:22:40;;;;;;;10.98;2.20;;;;;;;26.56;14.89;100237.16;4980981;28;20042;-44
2022/05/07 10:25:11;;;;;;;5.35;2.15;;;;;;;26.33;15.16;100252.56;4987492;28;20473;-46
2022/05/07 10:27:41;;;;;;;4.03;1.95;;;;;;;25.05;16.06;100256.84;4991647;28;20502;-48
2022/05/07 10:30:14;;;;;;;7.38;2.10;;;;;;;24.32;16.76;100255.84;4992111;28;20049;-46
2022/05/07 10:32:46;;;;;;;4.18;2.10;;;;;;;24.34;16.81;100248.56;4993523;28;20169;-46
2022/05/07 10:35:14;;;;;;;7.90;2.33;;;;;;;24.47;17.00;100243.09;4990904;28;20057;-50
2022/05/07 10:37:41;;;;;;;1.85;1.50;;;;;;;25.57;16.06;100237.22;4991789;28;20124;-48
2022/05/07 10:40:11;;;;;;;4.05;1.90;;;;;;;25.11;16.20;100211.94;4992596;28;20046;-46
2022/05/07 10:42:40;;;;;;;3.03;2.30;;;;;;;24.74;16.39;100229.31;4993478;28;20129;-45
2022/05/07 10:45:06;;;;;;;;;;;;;;;24.37;16.74;100221.75;4990689;28;20144;-45
2022/05/07 10:47:32;;;;;;;6.13;2.25;;;;;;;24.65;16.52;100222.13;4991871;28;19921;-46
2022/05/07 10:50:10;;;;;;;4.85;2.15;;;;;;;26.31;15.61;100238.56;4992252;28;20168;-47
2022/05/07 10:52:36;;;;;;;;;;;;;;;26.17;15.31;100225.56;4992360;28;20034;-45
2022/05/07 10:55:03;;;;;;;2.67;2.10;;;;;;;26.84;15.35;100222.94;4991719;28;20355;-47
2022/05/07 10:58:00;;;;;;;5.25;2.15;;;;;;;26.09;15.77;100236.94;4992708;28;20368;-44
2022/05/07 11:00:27;;;;;;;4.40;3.00;;;;;;;25.68;15.90;100208.69;4973448;28;20050;-43
2022/05/07 11:02:58;;;;;;;6.30;3.60;;;;;;;26.88;15.38;100211.03;4991022;28;20097;-47
2022/05/07 11:05:34;;;;;;;4.75;2.55;;;;;;;28.21;14.33;100212.41;4975360;28;20071;-47
2022/05/07 11:08:02;;;;;;;3.38;2.42;;;;;;;28.26;14.28;100234.19;4979621;28;20034;-46
2022/05/07 11:10:29;;;;;;;7.47;2.60;;;;;;;27.72;14.50;100213.66;4992447;28;20068;-44
2022/05/07 11:13:05;;;;;;;4.35;2.10;;;;;;;27.35;14.77;100211.00;4992141;28;20042;-46
2022/05/07 11:15:31;;;;;;;6.30;2.47;;;;;;;25.89;15.79;100200.59;4983386;28;20049;-48
2022/05/07 11:17:57;;;;;;;3.22;2.10;;;;;;;24.95;16.58;100192.94;4974878;28;20042;-47
2022/05/07 11:20:32;;;;;;;5.50;2.13;;;;;;;24.57;17.05;100174.03;4971555;28;20046;-46
2022/05/07 11:23:00;;;;;;;4.53;2.65;;;;;;;24.79;16.74;100181.88;4976680;28;20042;-46
2022/05/07 11:25:25;;;;;;;4.43;2.03;;;;;;;24.72;16.83;100176.25;4991299;28;20046;-46
2022/05/07 11:27:51;;;;;;;6.60;2.60;;;;;;;25.13;16.77;100179.84;4990535;28;20038;-47
2022/05/07 11:30:17;;;;;;;4.65;2.40;;;;;;;25.41;16.40;100178.28;4975143;28;20139;-47
2022/05/07 11:32:44;;;;;;;4.93;2.20;;;;;;;25.46;16.80;100162.75;4991458;28;20481;-48
2022/05/07 11:35:10;;;;;;;5.43;2.10;;;;;;;25.69;16.34;100169.56;4990402;28;20418;-44
2022/05/07 11:37:40;;;;;;;5.10;2.08;;;;;;;24.98;16.83;100170.53;4991102;28;20038;-46
2022/05/07 11:40:07;;;;;;;3.95;2.10;;;;;;;24.08;17.43;100152.38;4974105;28;20053;-48
2022/05/07 11:42:43;;;;;;;4.18;2.00;;;;;;;23.66;18.03;100166.50;4973571;28;20046;-46
2022/05/07 11:48:05;;;;;;;5.43;2.13;;;;;;;24.71;17.58;100163.06;4991901;28;20425;-45
2022/05/07 11:50:40;;;;;;;3.65;2.00;;;;;;;24.60;17.50;100169.28;4975295;28;20042;-47
2022/05/07 11:53:10;;;;;;;4.15;2.10;;;;;;;24.16;17.86;100158.88;4991140;28;20118;-46
2022/05/07 11:55:37;;;;;;;7.25;2.00;;;;;;;23.66;18.07;100163.84;4991643;28;20196;-45
2022/05/07 11:58:20;;;;;;;3.88;2.10;;;;;;;22.94;18.50;100150.13;4982470;28;20553;-45
2022/05/07 12:00:47;;;;;;;2.92;1.65;;;;;;;22.67;19.08;100138.97;4990531;28;20046;-47
2022/05/07 12:03:20;;;;;;;2.45;1.90;;;;;;;22.79;18.89;100132.78;4988637;28;20136;-47
2022/05/07 12:05:48;;;;;;;3.47;1.90;;;;;;;23.11;18.52;100141.72;4980563;28;20045;-46
2022/05/07 12:08:20;;;;;;;2.77;2.00;;;;;;;23.36;18.36;100145.06;4975448;28;20046;-50
2022/05/07 12:10:48;;;;;;;4.00;2.13;;;;;;;23.29;18.53;100130.59;4991072;28;20049;-50
2022/05/07 12:13:15;;;;;;;4.57;2.20;;;;;;;23.35;18.54;100122.13;4990750;28;20022;-46